sensor_id;sensor_type;location;lat;lon;timestamp;P1;durP1;ratioP1;P2;durP2;ratioP2
49103;SDS011;34915;52.926;11.116;2022-11-13T00:01:37;9.57;;;6.40;;
49103;SDS011;34915;52.926;11.116;2022-11-13T00:04:03;11.53;;;6.70;;
49103;SDS011;34915;52.926;11.116;2022-11-13T00:06:29;12.33;;;6.80;;
49103;SDS011;34915;52.926;11.116;2022-11-13T00:08:54;8.60;;;5.93;;
49103;SDS011;34915;52.926;11.116;2022-11-13T00:11:20;10.10;;;6.03;;
49103;SDS011;34915;52.926;11.116;2022-11-13T00:13:46;9.07;;;6.23;;
49103;SDS011;34915;52.926;11.116;2022-11-13T00:16:14;11.20;;;7.83;;
49103;SDS011;34915;52.926;11.116;2022-11-13T00:18:42;12.53;;;7.13;;
49103;SDS011;34915;52.926;11.116;2022-11-13T00:21:16;10.53;;;6.60;;
49103;SDS011;34915;52.926;11.116;2022-11-13T00:23:43;12.13;;;7.43;;
49103;SDS011;34915;52.926;11.116;2022-11-13T00:26:10;10.10;;;7.10;;
49103;SDS011;34915;52.926;11.116;2022-11-13T00:28:40;9.97;;;7.13;;
49103;SDS011;34915;52.926;11.116;2022-11-13T00:31:07;8.67;;;6.23;;
49103;SDS011;34915;52.926;11.116;2022-11-13T00:33:34;10.03;;;6.40;;
49103;SDS011;34915;52.926;11.116;2022-11-13T00:36:16;8.13;;;6.27;;
49103;SDS011;34915;52.926;11.116;2022-11-13T00:38:43;10.00;;;7.23;;
49103;SDS011;34915;52.926;11.116;2022-11-13T00:41:09;8.40;;;6.00;;
49103;SDS011;34915;52.926;11.116;2022-11-13T00:43:35;9.10;;;6.23;;
49103;SDS011;34915;52.926;11.116;2022-11-13T00:46:01;13.93;;;6.93;;
49103;SDS011;34915;52.926;11.116;2022-11-13T00:48:29;10.97;;;6.07;;
49103;SDS011;34915;52.926;11.116;2022-11-13T00:50:55;11.13;;;6.20;;
49103;SDS011;34915;52.926;11.116;2022-11-13T00:53:21;9.57;;;6.57;;
49103;SDS011;34915;52.926;11.116;2022-11-13T00:55:47;11.83;;;7.00;;
49103;SDS011;34915;52.926;11.116;2022-11-13T00:58:13;11.73;;;6.43;;
49103;SDS011;34915;52.926;11.116;2022-11-13T01:00:39;10.37;;;6.17;;
49103;SDS011;34915;52.926;11.116;2022-11-13T01:03:07;9.87;;;6.07;;
49103;SDS011;34915;52.926;11.116;2022-11-13T01:05:37;9.97;;;6.20;;
49103;SDS011;34915;52.926;11.116;2022-11-13T01:08:04;12.40;;;5.93;;
49103;SDS011;34915;52.926;11.116;2022-11-13T01:10:31;11.83;;;6.23;;
49103;SDS011;34915;52.926;11.116;2022-11-13T01:12:58;10.93;;;5.80;;
49103;SDS011;34915;52.926;11.116;2022-11-13T01:15:25;12.60;;;6.87;;
49103;SDS011;34915;52.926;11.116;2022-11-13T01:17:51;11.33;;;6.23;;
49103;SDS011;34915;52.926;11.116;2022-11-13T01:20:20;16.00;;;6.77;;
49103;SDS011;34915;52.926;11.116;2022-11-13T01:22:47;14.67;;;7.77;;
49103;SDS011;34915;52.926;11.116;2022-11-13T01:25:12;18.17;;;8.63;;
49103;SDS011;34915;52.926;11.116;2022-11-13T01:27:38;14.27;;;8.03;;
49103;SDS011;34915;52.926;11.116;2022-11-13T01:30:04;11.03;;;6.60;;
49103;SDS011;34915;52.926;11.116;2022-11-13T01:32:31;16.00;;;7.57;;
49103;SDS011;34915;52.926;11.116;2022-11-13T01:34:57;18.80;;;8.53;;
49103;SDS011;34915;52.926;11.116;2022-11-13T01:37:23;15.13;;;7.53;;
49103;SDS011;34915;52.926;11.116;2022-11-13T01:39:49;14.60;;;8.27;;
49103;SDS011;34915;52.926;11.116;2022-11-13T01:42:14;14.23;;;7.93;;
49103;SDS011;34915;52.926;11.116;2022-11-13T01:44:45;12.57;;;7.30;;
49103;SDS011;34915;52.926;11.116;2022-11-13T01:47:11;15.50;;;6.73;;
49103;SDS011;34915;52.926;11.116;2022-11-13T01:49:37;13.50;;;7.60;;
49103;SDS011;34915;52.926;11.116;2022-11-13T01:52:09;14.50;;;7.87;;
49103;SDS011;34915;52.926;11.116;2022-11-13T01:54:43;13.97;;;8.80;;
49103;SDS011;34915;52.926;11.116;2022-11-13T01:57:12;22.03;;;11.63;;
49103;SDS011;34915;52.926;11.116;2022-11-13T01:59:40;27.10;;;14.97;;
49103;SDS011;34915;52.926;11.116;2022-11-13T02:02:11;24.40;;;13.73;;
49103;SDS011;34915;52.926;11.116;2022-11-13T02:04:37;22.97;;;12.77;;
49103;SDS011;34915;52.926;11.116;2022-11-13T02:07:06;21.47;;;11.20;;
49103;SDS011;34915;52.926;11.116;2022-11-13T02:09:41;18.63;;;10.97;;
49103;SDS011;34915;52.926;11.116;2022-11-13T02:12:09;23.87;;;12.93;;
49103;SDS011;34915;52.926;11.116;2022-11-13T02:14:38;23.43;;;12.97;;
49103;SDS011;34915;52.926;11.116;2022-11-13T02:17:07;16.67;;;11.03;;
49103;SDS011;34915;52.926;11.116;2022-11-13T02:19:39;20.27;;;12.70;;
49103;SDS011;34915;52.926;11.116;2022-11-13T02:24:47;22.30;;;11.10;;
49103;SDS011;34915;52.926;11.116;2022-11-13T02:30:11;16.33;;;9.50;;
49103;SDS011;34915;52.926;11.116;2022-11-13T02:32:57;10.73;;;7.67;;
49103;SDS011;34915;52.926;11.116;2022-11-13T02:35:25;11.10;;;7.20;;
49103;SDS011;34915;52.926;11.116;2022-11-13T02:37:55;10.00;;;6.33;;
49103;SDS011;34915;52.926;11.116;2022-11-13T02:40:22;10.13;;;6.53;;
49103;SDS011;34915;52.926;11.116;2022-11-13T02:42:48;9.13;;;5.97;;
49103;SDS011;34915;52.926;11.116;2022-11-13T02:45:14;7.90;;;6.07;;
49103;SDS011;34915;52.926;11.116;2022-11-13T02:47:39;7.77;;;5.57;;
49103;SDS011;34915;52.926;11.116;2022-11-13T02:50:05;8.73;;;5.43;;
49103;SDS011;34915;52.926;11.116;2022-11-13T02:52:32;8.53;;;5.80;;
49103;SDS011;34915;52.926;11.116;2022-11-13T02:54:57;7.67;;;5.60;;
49103;SDS011;34915;52.926;11.116;2022-11-13T02:57:24;7.37;;;5.77;;
49103;SDS011;34915;52.926;11.116;2022-11-13T02:59:49;7.80;;;6.00;;
49103;SDS011;34915;52.926;11.116;2022-11-13T03:02:15;7.83;;;6.10;;
49103;SDS011;34915;52.926;11.116;2022-11-13T03:04:40;8.40;;;5.57;;
49103;SDS011;34915;52.926;11.116;2022-11-13T03:07:06;8.83;;;5.33;;
49103;SDS011;34915;52.926;11.116;2022-11-13T03:09:32;8.37;;;5.60;;
49103;SDS011;34915;52.926;11.116;2022-11-13T03:11:57;7.20;;;5.53;;
49103;SDS011;34915;52.926;11.116;2022-11-13T03:14:23;7.87;;;5.90;;
49103;SDS011;34915;52.926;11.116;2022-11-13T03:16:49;7.77;;;5.47;;
49103;SDS011;34915;52.926;11.116;2022-11-13T03:19:14;9.07;;;6.30;;
49103;SDS011;34915;52.926;11.116;2022-11-13T03:21:40;8.30;;;5.83;;
49103;SDS011;34915;52.926;11.116;2022-11-13T03:24:06;7.63;;;5.70;;
49103;SDS011;34915;52.926;11.116;2022-11-13T03:26:31;7.70;;;5.80;;
49103;SDS011;34915;52.926;11.116;2022-11-13T03:28:58;8.73;;;4.63;;
49103;SDS011;34915;52.926;11.116;2022-11-13T03:31:28;6.27;;;4.73;;
49103;SDS011;34915;52.926;11.116;2022-11-13T03:33:53;6.27;;;4.63;;
49103;SDS011;34915;52.926;11.116;2022-11-13T03:36:19;8.07;;;5.37;;
49103;SDS011;34915;52.926;11.116;2022-11-13T03:38:45;7.43;;;5.00;;
49103;SDS011;34915;52.926;11.116;2022-11-13T03:41:11;7.37;;;4.97;;
49103;SDS011;34915;52.926;11.116;2022-11-13T03:43:39;10.20;;;7.23;;
49103;SDS011;34915;52.926;11.116;2022-11-13T03:46:05;13.47;;;7.20;;
49103;SDS011;34915;52.926;11.116;2022-11-13T03:48:31;14.23;;;8.37;;
49103;SDS011;34915;52.926;11.116;2022-11-13T03:50:57;16.43;;;8.93;;
49103;SDS011;34915;52.926;11.116;2022-11-13T03:53:23;12.77;;;7.97;;
49103;SDS011;34915;52.926;11.116;2022-11-13T03:55:48;14.47;;;8.37;;
49103;SDS011;34915;52.926;11.116;2022-11-13T03:58:14;11.77;;;8.07;;
49103;SDS011;34915;52.926;11.116;2022-11-13T04:00:40;14.40;;;8.50;;
49103;SDS011;34915;52.926;11.116;2022-11-13T04:03:06;14.20;;;8.83;;
49103;SDS011;34915;52.926;11.116;2022-11-13T04:05:32;15.60;;;8.33;;
49103;SDS011;34915;52.926;11.116;2022-11-13T04:07:58;14.20;;;7.83;;
49103;SDS011;34915;52.926;11.116;2022-11-13T04:10:24;14.13;;;8.07;;
49103;SDS011;34915;52.926;11.116;2022-11-13T04:12:50;15.93;;;9.40;;
49103;SDS011;34915;52.926;11.116;2022-11-13T04:15:16;17.03;;;8.37;;
49103;SDS011;34915;52.926;11.116;2022-11-13T04:17:41;10.93;;;7.57;;
49103;SDS011;34915;52.926;11.116;2022-11-13T04:20:08;10.53;;;6.70;;
49103;SDS011;34915;52.926;11.116;2022-11-13T04:22:34;8.67;;;5.87;;
49103;SDS011;34915;52.926;11.116;2022-11-13T04:24:59;8.37;;;5.43;;
49103;SDS011;34915;52.926;11.116;2022-11-13T04:27:25;6.30;;;5.03;;
49103;SDS011;34915;52.926;11.116;2022-11-13T04:29:51;6.17;;;4.83;;
49103;SDS011;34915;52.926;11.116;2022-11-13T04:32:16;7.00;;;5.37;;
49103;SDS011;34915;52.926;11.116;2022-11-13T04:34:42;7.97;;;5.50;;
49103;SDS011;34915;52.926;11.116;2022-11-13T04:37:08;6.63;;;4.63;;
49103;SDS011;34915;52.926;11.116;2022-11-13T04:39:33;8.23;;;5.40;;
49103;SDS011;34915;52.926;11.116;2022-11-13T04:41:59;6.60;;;5.30;;
49103;SDS011;34915;52.926;11.116;2022-11-13T04:44:43;7.40;;;5.30;;
49103;SDS011;34915;52.926;11.116;2022-11-13T04:47:08;7.97;;;5.60;;
49103;SDS011;34915;52.926;11.116;2022-11-13T04:49:34;6.63;;;4.87;;
49103;SDS011;34915;52.926;11.116;2022-11-13T04:52:00;7.43;;;5.53;;
49103;SDS011;34915;52.926;11.116;2022-11-13T04:54:26;8.37;;;5.97;;
49103;SDS011;34915;52.926;11.116;2022-11-13T04:56:51;7.53;;;5.50;;
49103;SDS011;34915;52.926;11.116;2022-11-13T04:59:17;8.40;;;5.83;;
49103;SDS011;34915;52.926;11.116;2022-11-13T05:01:43;7.03;;;5.77;;
49103;SDS011;34915;52.926;11.116;2022-11-13T05:04:12;8.50;;;5.83;;
49103;SDS011;34915;52.926;11.116;2022-11-13T05:06:39;7.67;;;5.90;;
49103;SDS011;34915;52.926;11.116;2022-11-13T05:09:05;9.40;;;6.70;;
49103;SDS011;34915;52.926;11.116;2022-11-13T05:11:31;10.10;;;6.50;;
49103;SDS011;34915;52.926;11.116;2022-11-13T05:13:56;8.57;;;6.00;;
49103;SDS011;34915;52.926;11.116;2022-11-13T05:16:22;6.90;;;5.50;;
49103;SDS011;34915;52.926;11.116;2022-11-13T05:18:47;8.40;;;5.67;;
49103;SDS011;34915;52.926;11.116;2022-11-13T05:21:14;8.37;;;5.70;;
49103;SDS011;34915;52.926;11.116;2022-11-13T05:23:39;9.10;;;6.20;;
49103;SDS011;34915;52.926;11.116;2022-11-13T05:26:09;7.87;;;5.90;;
49103;SDS011;34915;52.926;11.116;2022-11-13T05:28:37;8.27;;;5.30;;
49103;SDS011;34915;52.926;11.116;2022-11-13T05:33:29;9.53;;;6.00;;
49103;SDS011;34915;52.926;11.116;2022-11-13T05:35:59;8.43;;;5.27;;
49103;SDS011;34915;52.926;11.116;2022-11-13T05:38:27;10.33;;;5.97;;
49103;SDS011;34915;52.926;11.116;2022-11-13T05:40:53;8.63;;;6.30;;
49103;SDS011;34915;52.926;11.116;2022-11-13T05:43:18;8.60;;;5.90;;
49103;SDS011;34915;52.926;11.116;2022-11-13T05:45:46;8.57;;;5.93;;
49103;SDS011;34915;52.926;11.116;2022-11-13T05:48:11;9.60;;;6.33;;
49103;SDS011;34915;52.926;11.116;2022-11-13T05:50:37;7.97;;;5.13;;
49103;SDS011;34915;52.926;11.116;2022-11-13T05:53:02;9.43;;;6.13;;
49103;SDS011;34915;52.926;11.116;2022-11-13T05:55:28;8.43;;;5.70;;
49103;SDS011;34915;52.926;11.116;2022-11-13T05:57:54;9.13;;;5.37;;
49103;SDS011;34915;52.926;11.116;2022-11-13T06:00:19;8.40;;;5.67;;
49103;SDS011;34915;52.926;11.116;2022-11-13T06:02:45;10.83;;;6.43;;
49103;SDS011;34915;52.926;11.116;2022-11-13T06:05:10;9.17;;;5.90;;
49103;SDS011;34915;52.926;11.116;2022-11-13T06:07:36;12.23;;;6.77;;
49103;SDS011;34915;52.926;11.116;2022-11-13T06:10:02;11.07;;;5.80;;
49103;SDS011;34915;52.926;11.116;2022-11-13T06:12:28;11.73;;;6.67;;
49103;SDS011;34915;52.926;11.116;2022-11-13T06:14:54;13.17;;;6.47;;
49103;SDS011;34915;52.926;11.116;2022-11-13T06:17:19;9.43;;;6.63;;
49103;SDS011;34915;52.926;11.116;2022-11-13T06:19:45;8.27;;;6.10;;
49103;SDS011;34915;52.926;11.116;2022-11-13T06:22:12;9.77;;;5.60;;
49103;SDS011;34915;52.926;11.116;2022-11-13T06:24:38;8.80;;;6.40;;
49103;SDS011;34915;52.926;11.116;2022-11-13T06:27:04;8.50;;;5.77;;
49103;SDS011;34915;52.926;11.116;2022-11-13T06:29:30;13.30;;;6.57;;
49103;SDS011;34915;52.926;11.116;2022-11-13T06:31:55;9.40;;;5.80;;
49103;SDS011;34915;52.926;11.116;2022-11-13T06:34:21;12.50;;;6.97;;
49103;SDS011;34915;52.926;11.116;2022-11-13T06:36:47;9.67;;;6.40;;
49103;SDS011;34915;52.926;11.116;2022-11-13T06:39:12;11.00;;;6.03;;
49103;SDS011;34915;52.926;11.116;2022-11-13T06:41:38;10.67;;;5.77;;
49103;SDS011;34915;52.926;11.116;2022-11-13T06:44:04;11.60;;;6.17;;
49103;SDS011;34915;52.926;11.116;2022-11-13T06:46:29;10.03;;;5.93;;
49103;SDS011;34915;52.926;11.116;2022-11-13T06:48:55;9.03;;;5.27;;
49103;SDS011;34915;52.926;11.116;2022-11-13T06:51:23;8.67;;;5.30;;
49103;SDS011;34915;52.926;11.116;2022-11-13T06:53:51;13.00;;;5.43;;
49103;SDS011;34915;52.926;11.116;2022-11-13T06:56:17;8.83;;;4.77;;
49103;SDS011;34915;52.926;11.116;2022-11-13T06:58:43;9.90;;;5.90;;
49103;SDS011;34915;52.926;11.116;2022-11-13T07:01:13;7.43;;;4.67;;
49103;SDS011;34915;52.926;11.116;2022-11-13T07:03:41;7.57;;;4.93;;
49103;SDS011;34915;52.926;11.116;2022-11-13T07:06:09;8.20;;;5.20;;
49103;SDS011;34915;52.926;11.116;2022-11-13T07:08:39;9.57;;;4.93;;
49103;SDS011;34915;52.926;11.116;2022-11-13T07:11:06;10.17;;;5.10;;
49103;SDS011;34915;52.926;11.116;2022-11-13T07:13:32;11.47;;;5.63;;
49103;SDS011;34915;52.926;11.116;2022-11-13T07:16:01;10.00;;;5.63;;
49103;SDS011;34915;52.926;11.116;2022-11-13T07:18:29;12.27;;;5.77;;
49103;SDS011;34915;52.926;11.116;2022-11-13T07:20:55;10.30;;;5.23;;
49103;SDS011;34915;52.926;11.116;2022-11-13T07:23:21;10.97;;;6.13;;
49103;SDS011;34915;52.926;11.116;2022-11-13T07:25:47;10.17;;;5.53;;
49103;SDS011;34915;52.926;11.116;2022-11-13T07:28:13;5.10;;;3.90;;
49103;SDS011;34915;52.926;11.116;2022-11-13T07:30:38;7.33;;;4.33;;
49103;SDS011;34915;52.926;11.116;2022-11-13T07:33:04;7.80;;;4.37;;
49103;SDS011;34915;52.926;11.116;2022-11-13T07:35:30;10.47;;;5.47;;
49103;SDS011;34915;52.926;11.116;2022-11-13T07:37:56;9.80;;;5.57;;
49103;SDS011;34915;52.926;11.116;2022-11-13T07:40:22;11.80;;;5.50;;
49103;SDS011;34915;52.926;11.116;2022-11-13T07:42:55;11.80;;;5.70;;
49103;SDS011;34915;52.926;11.116;2022-11-13T07:45:24;15.47;;;6.33;;
49103;SDS011;34915;52.926;11.116;2022-11-13T07:48:01;11.20;;;4.63;;
49103;SDS011;34915;52.926;11.116;2022-11-13T07:50:28;15.17;;;7.13;;
49103;SDS011;34915;52.926;11.116;2022-11-13T07:53:00;13.23;;;6.40;;
49103;SDS011;34915;52.926;11.116;2022-11-13T07:55:27;14.60;;;5.83;;
49103;SDS011;34915;52.926;11.116;2022-11-13T07:57:54;6.10;;;4.07;;
49103;SDS011;34915;52.926;11.116;2022-11-13T08:00:21;10.73;;;4.93;;
49103;SDS011;34915;52.926;11.116;2022-11-13T08:02:47;10.70;;;5.17;;
49103;SDS011;34915;52.926;11.116;2022-11-13T08:05:13;11.27;;;4.67;;
49103;SDS011;34915;52.926;11.116;2022-11-13T08:07:39;8.43;;;5.10;;
49103;SDS011;34915;52.926;11.116;2022-11-13T08:10:05;18.67;;;7.60;;
49103;SDS011;34915;52.926;11.116;2022-11-13T08:12:31;17.17;;;8.13;;
49103;SDS011;34915;52.926;11.116;2022-11-13T08:14:59;17.33;;;8.27;;
49103;SDS011;34915;52.926;11.116;2022-11-13T08:17:24;8.80;;;4.63;;
49103;SDS011;34915;52.926;11.116;2022-11-13T08:19:50;12.77;;;5.20;;
49103;SDS011;34915;52.926;11.116;2022-11-13T08:22:15;12.60;;;5.53;;
49103;SDS011;34915;52.926;11.116;2022-11-13T08:24:41;9.93;;;4.90;;
49103;SDS011;34915;52.926;11.116;2022-11-13T08:27:07;14.10;;;5.53;;
49103;SDS011;34915;52.926;11.116;2022-11-13T08:29:32;10.40;;;5.77;;
49103;SDS011;34915;52.926;11.116;2022-11-13T08:31:58;9.10;;;6.23;;
49103;SDS011;34915;52.926;11.116;2022-11-13T08:34:24;20.57;;;6.87;;
49103;SDS011;34915;52.926;11.116;2022-11-13T08:36:50;9.80;;;6.10;;
49103;SDS011;34915;52.926;11.116;2022-11-13T08:39:15;16.63;;;8.03;;
49103;SDS011;34915;52.926;11.116;2022-11-13T08:41:41;22.23;;;9.57;;
49103;SDS011;34915;52.926;11.116;2022-11-13T08:44:06;16.73;;;7.43;;
49103;SDS011;34915;52.926;11.116;2022-11-13T08:46:32;13.07;;;7.00;;
49103;SDS011;34915;52.926;11.116;2022-11-13T08:48:57;12.77;;;6.07;;
49103;SDS011;34915;52.926;11.116;2022-11-13T08:51:23;17.47;;;7.30;;
49103;SDS011;34915;52.926;11.116;2022-11-13T08:53:48;14.07;;;6.67;;
49103;SDS011;34915;52.926;11.116;2022-11-13T08:56:14;14.53;;;6.67;;
49103;SDS011;34915;52.926;11.116;2022-11-13T08:58:40;14.63;;;6.90;;
49103;SDS011;34915;52.926;11.116;2022-11-13T09:01:05;16.83;;;8.17;;
49103;SDS011;34915;52.926;11.116;2022-11-13T09:03:31;16.37;;;7.87;;
49103;SDS011;34915;52.926;11.116;2022-11-13T09:05:57;15.23;;;7.20;;
49103;SDS011;34915;52.926;11.116;2022-11-13T09:08:22;17.43;;;8.10;;
49103;SDS011;34915;52.926;11.116;2022-11-13T09:10:48;16.93;;;8.53;;
49103;SDS011;34915;52.926;11.116;2022-11-13T09:13:13;20.03;;;7.77;;
49103;SDS011;34915;52.926;11.116;2022-11-13T09:15:39;18.53;;;8.37;;
49103;SDS011;34915;52.926;11.116;2022-11-13T09:18:06;19.40;;;9.70;;
49103;SDS011;34915;52.926;11.116;2022-11-13T09:20:33;16.23;;;6.77;;
49103;SDS011;34915;52.926;11.116;2022-11-13T09:23:00;17.80;;;9.30;;
49103;SDS011;34915;52.926;11.116;2022-11-13T09:25:28;17.50;;;8.30;;
49103;SDS011;34915;52.926;11.116;2022-11-13T09:27:55;21.87;;;9.83;;
49103;SDS011;34915;52.926;11.116;2022-11-13T09:30:23;23.30;;;9.50;;
49103;SDS011;34915;52.926;11.116;2022-11-13T09:32:52;18.90;;;8.90;;
49103;SDS011;34915;52.926;11.116;2022-11-13T09:35:19;20.47;;;8.93;;
49103;SDS011;34915;52.926;11.116;2022-11-13T09:38:02;19.70;;;10.17;;
49103;SDS011;34915;52.926;11.116;2022-11-13T09:40:52;20.47;;;10.33;;
49103;SDS011;34915;52.926;11.116;2022-11-13T09:43:41;21.60;;;9.37;;
49103;SDS011;34915;52.926;11.116;2022-11-13T09:48:56;16.87;;;8.47;;
49103;SDS011;34915;52.926;11.116;2022-11-13T09:51:29;18.27;;;8.77;;
49103;SDS011;34915;52.926;11.116;2022-11-13T09:53:57;18.47;;;9.33;;
49103;SDS011;34915;52.926;11.116;2022-11-13T09:56:29;16.90;;;9.07;;
49103;SDS011;34915;52.926;11.116;2022-11-13T10:13:27;18.50;;;8.63;;
49103;SDS011;34915;52.926;11.116;2022-11-13T10:16:21;15.50;;;8.17;;
49103;SDS011;34915;52.926;11.116;2022-11-13T10:18:49;20.03;;;9.17;;
49103;SDS011;34915;52.926;11.116;2022-11-13T10:21:24;12.70;;;7.97;;
49103;SDS011;34915;52.926;11.116;2022-11-13T10:23:57;17.17;;;8.73;;
49103;SDS011;34915;52.926;11.116;2022-11-13T10:26:28;14.57;;;6.97;;
49103;SDS011;34915;52.926;11.116;2022-11-13T10:29:04;20.00;;;8.20;;
49103;SDS011;34915;52.926;11.116;2022-11-13T10:34:09;14.53;;;7.53;;
49103;SDS011;34915;52.926;11.116;2022-11-13T10:39:30;17.07;;;8.20;;
49103;SDS011;34915;52.926;11.116;2022-11-13T10:42:17;14.83;;;7.83;;
49103;SDS011;34915;52.926;11.116;2022-11-13T10:44:58;14.57;;;8.23;;
49103;SDS011;34915;52.926;11.116;2022-11-13T10:47:25;13.47;;;6.67;;
49103;SDS011;34915;52.926;11.116;2022-11-13T10:49:56;11.77;;;6.57;;
49103;SDS011;34915;52.926;11.116;2022-11-13T10:52:23;13.23;;;6.70;;
49103;SDS011;34915;52.926;11.116;2022-11-13T10:55:12;13.60;;;7.87;;
49103;SDS011;34915;52.926;11.116;2022-11-13T10:57:39;15.87;;;8.23;;
49103;SDS011;34915;52.926;11.116;2022-11-13T11:00:18;19.00;;;8.97;;
49103;SDS011;34915;52.926;11.116;2022-11-13T11:02:49;15.87;;;8.80;;
49103;SDS011;34915;52.926;11.116;2022-11-13T11:05:19;12.97;;;7.77;;
49103;SDS011;34915;52.926;11.116;2022-11-13T11:07:47;11.97;;;6.43;;
49103;SDS011;34915;52.926;11.116;2022-11-13T11:13:20;14.00;;;6.00;;
49103;SDS011;34915;52.926;11.116;2022-11-13T11:15:49;10.97;;;6.00;;
49103;SDS011;34915;52.926;11.116;2022-11-13T11:20:57;11.67;;;7.07;;
49103;SDS011;34915;52.926;11.116;2022-11-13T11:29:24;14.30;;;7.80;;
49103;SDS011;34915;52.926;11.116;2022-11-13T11:37:44;14.07;;;6.50;;
49103;SDS011;34915;52.926;11.116;2022-11-13T11:45:48;15.13;;;7.20;;
49103;SDS011;34915;52.926;11.116;2022-11-13T11:48:15;8.97;;;5.40;;
49103;SDS011;34915;52.926;11.116;2022-11-13T11:50:46;11.10;;;5.73;;
49103;SDS011;34915;52.926;11.116;2022-11-13T11:53:21;10.30;;;6.27;;
49103;SDS011;34915;52.926;11.116;2022-11-13T12:05:00;7.80;;;5.50;;
49103;SDS011;34915;52.926;11.116;2022-11-13T12:28:47;10.60;;;6.57;;
49103;SDS011;34915;52.926;11.116;2022-11-13T12:37:01;21.03;;;8.33;;
49103;SDS011;34915;52.926;11.116;2022-11-13T12:47:19;14.63;;;7.53;;
49103;SDS011;34915;52.926;11.116;2022-11-13T12:49:45;11.80;;;7.37;;
49103;SDS011;34915;52.926;11.116;2022-11-13T12:52:21;15.57;;;8.43;;
49103;SDS011;34915;52.926;11.116;2022-11-13T12:54:48;13.97;;;7.30;;
49103;SDS011;34915;52.926;11.116;2022-11-13T13:02:31;13.07;;;7.50;;
49103;SDS011;34915;52.926;11.116;2022-11-13T13:05:48;19.67;;;7.00;;
49103;SDS011;34915;52.926;11.116;2022-11-13T13:13:54;12.97;;;6.53;;
49103;SDS011;34915;52.926;11.116;2022-11-13T13:16:27;12.53;;;6.50;;
49103;SDS011;34915;52.926;11.116;2022-11-13T13:19:04;11.60;;;6.90;;
49103;SDS011;34915;52.926;11.116;2022-11-13T13:21:39;12.07;;;6.87;;
49103;SDS011;34915;52.926;11.116;2022-11-13T13:24:08;13.43;;;7.50;;
49103;SDS011;34915;52.926;11.116;2022-11-13T13:26:51;15.10;;;6.93;;
49103;SDS011;34915;52.926;11.116;2022-11-13T13:29:21;15.27;;;7.43;;
49103;SDS011;34915;52.926;11.116;2022-11-13T13:34:45;11.63;;;6.67;;
49103;SDS011;34915;52.926;11.116;2022-11-13T13:48:07;12.73;;;7.60;;
49103;SDS011;34915;52.926;11.116;2022-11-13T13:50:39;16.80;;;9.37;;
49103;SDS011;34915;52.926;11.116;2022-11-13T13:53:11;19.80;;;10.00;;
49103;SDS011;34915;52.926;11.116;2022-11-13T13:55:43;17.80;;;9.50;;
49103;SDS011;34915;52.926;11.116;2022-11-13T13:58:13;22.83;;;10.33;;
49103;SDS011;34915;52.926;11.116;2022-11-13T14:00:41;18.33;;;8.50;;
49103;SDS011;34915;52.926;11.116;2022-11-13T14:03:20;16.47;;;7.33;;
49103;SDS011;34915;52.926;11.116;2022-11-13T14:05:47;10.80;;;6.33;;
49103;SDS011;34915;52.926;11.116;2022-11-13T14:08:21;8.80;;;5.33;;
49103;SDS011;34915;52.926;11.116;2022-11-13T14:10:51;8.20;;;5.60;;
49103;SDS011;34915;52.926;11.116;2022-11-13T14:13:26;14.30;;;6.53;;
49103;SDS011;34915;52.926;11.116;2022-11-13T14:16:00;10.30;;;6.57;;
49103;SDS011;34915;52.926;11.116;2022-11-13T14:18:26;10.47;;;5.83;;
49103;SDS011;34915;52.926;11.116;2022-11-13T14:20:52;12.73;;;6.33;;
49103;SDS011;34915;52.926;11.116;2022-11-13T14:23:25;14.97;;;6.60;;
49103;SDS011;34915;52.926;11.116;2022-11-13T14:25:55;10.70;;;5.60;;
49103;SDS011;34915;52.926;11.116;2022-11-13T14:28:26;7.70;;;4.63;;
49103;SDS011;34915;52.926;11.116;2022-11-13T14:30:59;9.23;;;5.47;;
49103;SDS011;34915;52.926;11.116;2022-11-13T14:33:34;9.73;;;5.90;;
49103;SDS011;34915;52.926;11.116;2022-11-13T14:36:05;14.73;;;7.10;;
49103;SDS011;34915;52.926;11.116;2022-11-13T14:38:32;13.73;;;6.60;;
49103;SDS011;34915;52.926;11.116;2022-11-13T14:41:00;12.00;;;6.70;;
49103;SDS011;34915;52.926;11.116;2022-11-13T14:43:30;8.83;;;5.53;;
49103;SDS011;34915;52.926;11.116;2022-11-13T14:45:58;11.37;;;5.93;;
49103;SDS011;34915;52.926;11.116;2022-11-13T14:48:26;8.43;;;5.60;;
49103;SDS011;34915;52.926;11.116;2022-11-13T14:56:06;7.77;;;4.10;;
49103;SDS011;34915;52.926;11.116;2022-11-13T14:58:34;9.23;;;5.17;;
49103;SDS011;34915;52.926;11.116;2022-11-13T15:01:18;7.07;;;3.93;;
49103;SDS011;34915;52.926;11.116;2022-11-13T15:03:46;8.63;;;4.93;;
49103;SDS011;34915;52.926;11.116;2022-11-13T15:06:23;10.63;;;5.87;;
49103;SDS011;34915;52.926;11.116;2022-11-13T15:08:53;8.10;;;4.23;;
49103;SDS011;34915;52.926;11.116;2022-11-13T15:11:21;8.37;;;4.70;;
49103;SDS011;34915;52.926;11.116;2022-11-13T15:13:49;8.80;;;4.50;;
49103;SDS011;34915;52.926;11.116;2022-11-13T15:16:16;7.80;;;4.30;;
49103;SDS011;34915;52.926;11.116;2022-11-13T15:18:45;8.90;;;4.23;;
49103;SDS011;34915;52.926;11.116;2022-11-13T15:21:13;9.10;;;3.83;;
49103;SDS011;34915;52.926;11.116;2022-11-13T15:23:39;7.33;;;3.97;;
49103;SDS011;34915;52.926;11.116;2022-11-13T15:26:05;8.87;;;4.60;;
49103;SDS011;34915;52.926;11.116;2022-11-13T15:28:35;7.27;;;3.70;;
49103;SDS011;34915;52.926;11.116;2022-11-13T15:31:00;6.43;;;4.07;;
49103;SDS011;34915;52.926;11.116;2022-11-13T15:33:26;7.20;;;3.90;;
49103;SDS011;34915;52.926;11.116;2022-11-13T15:35:51;8.23;;;4.57;;
49103;SDS011;34915;52.926;11.116;2022-11-13T15:38:17;8.87;;;4.87;;
49103;SDS011;34915;52.926;11.116;2022-11-13T15:40:45;5.50;;;3.90;;
49103;SDS011;34915;52.926;11.116;2022-11-13T15:43:15;11.60;;;4.20;;
49103;SDS011;34915;52.926;11.116;2022-11-13T15:45:44;6.60;;;4.00;;
49103;SDS011;34915;52.926;11.116;2022-11-13T15:48:10;6.20;;;3.83;;
49103;SDS011;34915;52.926;11.116;2022-11-13T15:50:37;6.57;;;4.00;;
49103;SDS011;34915;52.926;11.116;2022-11-13T15:53:03;7.27;;;4.10;;
49103;SDS011;34915;52.926;11.116;2022-11-13T15:55:30;9.20;;;4.70;;
49103;SDS011;34915;52.926;11.116;2022-11-13T15:57:57;9.27;;;4.47;;
49103;SDS011;34915;52.926;11.116;2022-11-13T16:00:26;10.00;;;4.53;;
49103;SDS011;34915;52.926;11.116;2022-11-13T16:02:53;8.53;;;4.83;;
49103;SDS011;34915;52.926;11.116;2022-11-13T16:05:21;8.60;;;4.17;;
49103;SDS011;34915;52.926;11.116;2022-11-13T16:07:50;7.33;;;4.70;;
49103;SDS011;34915;52.926;11.116;2022-11-13T16:10:17;12.17;;;5.03;;
49103;SDS011;34915;52.926;11.116;2022-11-13T16:12:45;8.67;;;4.80;;
49103;SDS011;34915;52.926;11.116;2022-11-13T16:15:12;11.93;;;5.57;;
49103;SDS011;34915;52.926;11.116;2022-11-13T16:17:40;9.80;;;5.33;;
49103;SDS011;34915;52.926;11.116;2022-11-13T16:20:10;7.37;;;5.20;;
49103;SDS011;34915;52.926;11.116;2022-11-13T16:22:39;12.03;;;6.13;;
49103;SDS011;34915;52.926;11.116;2022-11-13T16:25:05;7.60;;;5.07;;
49103;SDS011;34915;52.926;11.116;2022-11-13T16:27:34;6.20;;;4.70;;
49103;SDS011;34915;52.926;11.116;2022-11-13T16:30:02;8.97;;;5.40;;
49103;SDS011;34915;52.926;11.116;2022-11-13T16:32:28;12.17;;;6.50;;
49103;SDS011;34915;52.926;11.116;2022-11-13T16:34:53;14.23;;;6.33;;
49103;SDS011;34915;52.926;11.116;2022-11-13T16:37:20;7.57;;;5.43;;
49103;SDS011;34915;52.926;11.116;2022-11-13T16:39:48;10.87;;;6.00;;